• Join FlightAware (Why Join?)
  • Login
  • US Flag GB Flag 
19:42 EDT


 

Airport Tracker/Info


-or-


 

Live Flight TrackerFlight Track Log ✈ SKW6528 ✈ 25-Apr-2013 ✈ KDEN - KSGF

Flight Track Log - Related Links

Times and Time Zones

All times are in EDT time to prevent confusion due to time zone crossing. See the SKW6528 flight status page for this flight to view local times or setup timezone preferences in your user account.

Time Position Orientation Groundspeed Altitude Reporting Facility
EDT Latitude Longitude Course Direction KTS MPH feet Rate Location/Type
12:17 39.7697 -104.1588 103° East  Level Estimated
12:18 39.7386 -103.9876 103° East  Level Estimated
12:19 39.7072 -103.8166 103° East  Level Estimated
12:20 39.6755 -103.6458 103° East  Level Estimated
12:21 39.6436 -103.4751 104° East  Level Estimated
12:22 39.6115 -103.3046 104° East  Level Estimated
12:23 39.5791 -103.1342 104° East  Level Estimated
12:24 39.5464 -102.9640 104° East  Level Estimated
12:25 39.5135 -102.7939 104° East  Level Estimated
12:26 39.4804 -102.6240 104° East  Level Estimated
12:27 39.4470 -102.4543 104° East  Level Estimated
12:28 39.4133 -102.2847 104° East  Level Estimated
12:29 39.3795 -102.1153 104° East  Level Estimated
12:30 39.3453 -101.9461 105° East  Level Estimated
12:31 39.3109 -101.7770 105° East  Level Estimated
12:32 39.2763 -101.6081 105° East  Level Estimated
12:33 39.2415 -101.4394 105° East  Level Estimated
12:34 39.2063 -101.2708 105° East  Level Estimated
12:35 39.1710 -101.1024 105° East  Level Estimated
12:36 39.1354 -100.9342 105° East  Level Estimated
12:37 39.0996 -100.7662 105° East  Level Estimated
12:38 39.0635 -100.5983 105° East  Level Estimated
12:39 39.0272 -100.4306 106° East  Level Estimated
12:40 38.9906 -100.2630 106° East  Level Estimated
12:41 38.9538 -100.0956 106° East  Level Estimated
12:42 38.9168 -99.9285 106° East  Level Estimated
12:43 38.8795 -99.7614 106° East  Level Estimated
12:44 38.8420 -99.5946 106° East  Level Estimated
12:45 38.8042 -99.4279 106° East  Level Estimated
12:46 38.7663 -99.2614 106° East  Level Estimated
12:47 38.7280 -99.0951 106° East  Level Estimated
12:48 38.6896 -98.9290 106° East  Level Estimated
12:49 38.6509 -98.7630 107° East  Level Estimated
12:50 38.6120 -98.5973 107° East  Level Estimated
12:51 38.5728 -98.4317 107° East  Level Estimated
12:52 38.5334 -98.2663 107° East  Level Estimated
12:53 38.4938 -98.1011 107° East  Level Estimated
12:54 38.4539 -97.9360 107° East  Level Estimated
12:55 38.4139 -97.7711 107° East  Level Estimated
12:56 38.3735 -97.6065 107° East  Level Estimated
12:57 38.3330 -97.4419 107° East  Level Estimated
12:58 38.2922 -97.2776 107° East  Level Estimated
12:59 38.2512 -97.1135 108° East  Level Estimated
13:00 38.2100 -96.9496 108° East  Level Estimated
13:01 38.1685 -96.7858 108° East  Level Estimated
13:02 38.1268 -96.6222 108° East  Level Estimated
13:03 38.0849 -96.4589 108° East  Level Estimated
13:04 38.0428 -96.2957 108° East  Level Estimated
13:05 38.0004 -96.1327 108° East  Level Estimated
13:06 37.9578 -95.9698 108° East  Level Estimated
13:07 37.9150 -95.8072 108° East  Level Estimated
13:08 37.8719 -95.6448 109° East  Level Estimated
13:09 37.8287 -95.4825 109° East  Level Estimated
13:10 37.7852 -95.3204 109° East  Level Estimated
13:11 37.7415 -95.1586 109° East  Level Estimated
13:12 37.6976 -94.9969 109° East  Level Estimated
13:13 37.6534 -94.8354 109° East  Level Estimated
13:14 37.6091 -94.6741 109° East  Level Estimated
13:15 37.5645 -94.5130 109° East  Level Estimated
13:16 37.5197 -94.3521 109° East  Level Estimated
13:17 37.4746 -94.1914 109° East  Level Estimated
13:18 37.4294 -94.0309 109° East  Level Estimated
13:19 37.3839 -93.8706 110° East  Level Estimated
13:20 37.3383 -93.7104 110° East  Level Estimated
13:21 37.2924 -93.5505 110° East  Level Estimated
13:22 37.2463 -93.3908 110° East  Level Estimated
13:23 37.2457 -93.3886 110° East  Level Estimated
13:24 37.2457 -93.3886 165° South  Level Estimated
13:25 37.2457 -93.3886 165° South  Level Estimated
13:26 37.2457 -93.3886 165° South  Level Estimated
13:27 37.2457 -93.3886 165° South  Level Estimated